KLBL/LBL METAR and TAF weather

Enter ICAO airport designator
Station Type Date Time Source
KLBL METAR 2021/03/05 06:56 UTC NOAA

KLBL 050656Z AUTO 05011KT 10SM CLR 06/04 A2991 RMK AO2 SLP124 T00610039


Station Type Date Time Source
KLBL Decoded METAR 2021/03/05 06:56 UTC NOAA

Liberal, Liberal Municipal Airport, KS, United States (KLBL) 37-03N 100-58W
Mar 05, 2021 - 01:56 AM EST / 2021.03.05 0656 UTC
Wind: from the NE (050 degrees) at 13 MPH (11 KT):0
Visibility: 10 mile(s):0
Sky conditions: clear
Temperature: 43.0 F (6.1 C)
Dew Point: 39.0 F (3.9 C)
Relative Humidity: 85%
Pressure (altimeter): 29.91 in. Hg (1012 hPa)
ob: KLBL 050656Z AUTO 05011KT 10SM CLR 06/04 A2991 RMK AO2 SLP124 T00610039
cycle: 7

Station Type Date Time Source
KLBL TAF 2021/03/05 06:21 UTC NOAA

TAF KLBL 050520Z 0506/0606 31010KT P6SM VCSH SKC
FM050800 04021G29KT P6SM VCSH BKN019
FM051200 02025G35KT 5SM -SHRA BR OVC008
FM051600 01023G31KT P6SM VCSH BKN014
FM051800 01024G34KT P6SM SCT025
FM052300 03018KT P6SM FEW090

Example: see airport list